sensor_id;sensor_type;location;lat;lon;timestamp;pressure;altitude;pressure_sealevel;temperature;humidity
61205;BME280;47068;55.780;37.520;2023-11-21T00:01:26;99472.47;;;-4.86;54.38
61205;BME280;47068;55.780;37.520;2023-11-21T00:03:51;99448.56;;;-5.11;54.84
61205;BME280;47068;55.780;37.520;2023-11-21T00:06:19;99468.69;;;-4.98;54.70
61205;BME280;47068;55.780;37.520;2023-11-21T00:08:45;99467.47;;;-4.91;54.67
61205;BME280;47068;55.780;37.520;2023-11-21T00:11:11;99474.63;;;-4.96;55.12
61205;BME280;47068;55.780;37.520;2023-11-21T00:13:36;99470.25;;;-5.12;54.54
61205;BME280;47068;55.780;37.520;2023-11-21T00:16:03;99451.25;;;-5.32;54.58
61205;BME280;47068;55.780;37.520;2023-11-21T00:18:29;99472.84;;;-5.31;55.26
61205;BME280;47068;55.780;37.520;2023-11-21T00:20:55;99463.59;;;-5.37;55.55
61205;BME280;47068;55.780;37.520;2023-11-21T00:23:20;99474.19;;;-5.23;55.25
61205;BME280;47068;55.780;37.520;2023-11-21T00:25:46;99453.44;;;-5.41;55.39
61205;BME280;47068;55.780;37.520;2023-11-21T00:28:11;99467.53;;;-5.28;55.64
61205;BME280;47068;55.780;37.520;2023-11-21T00:30:37;99465.91;;;-5.31;55.79
61205;BME280;47068;55.780;37.520;2023-11-21T00:33:02;99466.56;;;-5.26;56.17
61205;BME280;47068;55.780;37.520;2023-11-21T00:35:27;99447.47;;;-5.25;55.14
61205;BME280;47068;55.780;37.520;2023-11-21T00:37:53;99450.06;;;-5.25;55.57
61205;BME280;47068;55.780;37.520;2023-11-21T00:40:18;99467.09;;;-5.00;55.42
61205;BME280;47068;55.780;37.520;2023-11-21T00:42:47;99465.09;;;-4.95;55.38
61205;BME280;47068;55.780;37.520;2023-11-21T00:45:13;99469.44;;;-4.96;55.19
61205;BME280;47068;55.780;37.520;2023-11-21T00:47:39;99454.75;;;-5.14;54.77
61205;BME280;47068;55.780;37.520;2023-11-21T00:50:05;99456.88;;;-5.22;55.46
61205;BME280;47068;55.780;37.520;2023-11-21T00:52:32;99459.72;;;-5.09;54.96
61205;BME280;47068;55.780;37.520;2023-11-21T00:54:57;99459.31;;;-5.00;54.72
61205;BME280;47068;55.780;37.520;2023-11-21T00:57:25;99444.94;;;-5.07;55.47
61205;BME280;47068;55.780;37.520;2023-11-21T00:59:51;99455.25;;;-5.06;54.72
61205;BME280;47068;55.780;37.520;2023-11-21T01:02:16;99462.19;;;-5.06;55.64
61205;BME280;47068;55.780;37.520;2023-11-21T01:04:42;99461.91;;;-5.00;55.90
61205;BME280;47068;55.780;37.520;2023-11-21T01:07:07;99464.31;;;-4.97;55.72
61205;BME280;47068;55.780;37.520;2023-11-21T01:09:33;99442.19;;;-5.04;55.50
61205;BME280;47068;55.780;37.520;2023-11-21T01:11:58;99465.28;;;-4.81;55.79
61205;BME280;47068;55.780;37.520;2023-11-21T01:14:25;99449.25;;;-4.89;55.17
61205;BME280;47068;55.780;37.520;2023-11-21T01:16:52;99468.25;;;-4.89;54.72
61205;BME280;47068;55.780;37.520;2023-11-21T01:19:17;99453.94;;;-4.97;55.58
61205;BME280;47068;55.780;37.520;2023-11-21T01:21:43;99469.38;;;-4.94;55.66
61205;BME280;47068;55.780;37.520;2023-11-21T01:24:08;99463.97;;;-4.90;55.40
61205;BME280;47068;55.780;37.520;2023-11-21T01:26:34;99459.56;;;-4.88;55.03
61205;BME280;47068;55.780;37.520;2023-11-21T01:28:59;99463.00;;;-4.87;55.22
61205;BME280;47068;55.780;37.520;2023-11-21T01:31:25;99458.75;;;-5.07;54.91
61205;BME280;47068;55.780;37.520;2023-11-21T01:33:54;99461.19;;;-5.04;55.47
61205;BME280;47068;55.780;37.520;2023-11-21T01:36:20;99461.59;;;-4.94;55.25
61205;BME280;47068;55.780;37.520;2023-11-21T01:38:46;99454.88;;;-4.98;55.24
61205;BME280;47068;55.780;37.520;2023-11-21T01:41:13;99468.69;;;-4.98;55.00
61205;BME280;47068;55.780;37.520;2023-11-21T01:43:39;99465.97;;;-5.13;54.26
61205;BME280;47068;55.780;37.520;2023-11-21T01:46:05;99452.53;;;-5.22;55.21
61205;BME280;47068;55.780;37.520;2023-11-21T01:48:31;99477.03;;;-5.10;54.32
61205;BME280;47068;55.780;37.520;2023-11-21T01:50:57;99463.59;;;-5.18;54.81
61205;BME280;47068;55.780;37.520;2023-11-21T01:53:25;99463.97;;;-5.26;55.50
61205;BME280;47068;55.780;37.520;2023-11-21T01:55:51;99474.81;;;-5.18;55.06
61205;BME280;47068;55.780;37.520;2023-11-21T01:58:17;99465.06;;;-5.12;54.77
61205;BME280;47068;55.780;37.520;2023-11-21T02:00:42;99476.34;;;-5.13;54.53
61205;BME280;47068;55.780;37.520;2023-11-21T02:03:08;99465.69;;;-5.07;54.61
61205;BME280;47068;55.780;37.520;2023-11-21T02:05:35;99466.47;;;-5.05;54.43
61205;BME280;47068;55.780;37.520;2023-11-21T02:08:02;99458.69;;;-5.05;53.71
61205;BME280;47068;55.780;37.520;2023-11-21T02:10:28;99461.28;;;-5.05;53.35
61205;BME280;47068;55.780;37.520;2023-11-21T02:12:54;99470.72;;;-5.04;53.28
61205;BME280;47068;55.780;37.520;2023-11-21T02:15:22;99444.97;;;-5.26;53.68
61205;BME280;47068;55.780;37.520;2023-11-21T02:17:49;99465.97;;;-5.13;53.77
61205;BME280;47068;55.780;37.520;2023-11-21T02:20:19;99471.84;;;-5.10;53.75
61205;BME280;47068;55.780;37.520;2023-11-21T02:22:53;99477.38;;;-5.18;53.49
61205;BME280;47068;55.780;37.520;2023-11-21T02:25:26;99459.81;;;-5.30;53.86
61205;BME280;47068;55.780;37.520;2023-11-21T02:27:55;99464.88;;;-5.27;53.57
61205;BME280;47068;55.780;37.520;2023-11-21T02:30:22;99467.47;;;-5.27;53.68
61205;BME280;47068;55.780;37.520;2023-11-21T02:32:50;99476.41;;;-5.15;53.25
61205;BME280;47068;55.780;37.520;2023-11-21T02:35:18;99457.84;;;-5.25;53.52
61205;BME280;47068;55.780;37.520;2023-11-21T02:37:46;99418.34;;;-5.48;53.13
61205;BME280;47068;55.780;37.520;2023-11-21T02:40:12;99467.97;;;-5.19;53.15
61205;BME280;47068;55.780;37.520;2023-11-21T02:42:39;99471.47;;;-5.20;53.21
61205;BME280;47068;55.780;37.520;2023-11-21T02:45:06;99465.72;;;-5.26;53.42
61205;BME280;47068;55.780;37.520;2023-11-21T02:47:32;99452.25;;;-5.34;52.70
61205;BME280;47068;55.780;37.520;2023-11-21T02:49:57;99469.56;;;-5.35;52.91
61205;BME280;47068;55.780;37.520;2023-11-21T02:52:23;99482.75;;;-5.21;52.95
61205;BME280;47068;55.780;37.520;2023-11-21T02:54:49;99473.63;;;-5.29;52.54
61205;BME280;47068;55.780;37.520;2023-11-21T02:57:14;99495.69;;;-5.21;52.04
61205;BME280;47068;55.780;37.520;2023-11-21T02:59:40;99478.88;;;-5.31;53.37
61205;BME280;47068;55.780;37.520;2023-11-21T03:02:05;99491.34;;;-5.20;53.01
61205;BME280;47068;55.780;37.520;2023-11-21T03:04:34;99492.66;;;-5.11;52.29
61205;BME280;47068;55.780;37.520;2023-11-21T03:07:00;99496.75;;;-5.06;52.15
61205;BME280;47068;55.780;37.520;2023-11-21T03:09:25;99475.63;;;-5.17;52.03
61205;BME280;47068;55.780;37.520;2023-11-21T03:11:51;99493.44;;;-5.09;52.35
61205;BME280;47068;55.780;37.520;2023-11-21T03:14:17;99472.00;;;-5.32;52.18
61205;BME280;47068;55.780;37.520;2023-11-21T03:16:42;99497.66;;;-5.26;53.10
61205;BME280;47068;55.780;37.520;2023-11-21T03:19:11;99497.66;;;-5.26;52.90
61205;BME280;47068;55.780;37.520;2023-11-21T03:21:36;99504.38;;;-5.22;52.75
61205;BME280;47068;55.780;37.520;2023-11-21T03:24:02;99498.78;;;-5.31;52.79
61205;BME280;47068;55.780;37.520;2023-11-21T03:26:27;99483.66;;;-5.40;53.32
61205;BME280;47068;55.780;37.520;2023-11-21T03:28:53;99487.28;;;-5.44;53.21
61205;BME280;47068;55.780;37.520;2023-11-21T03:31:19;99495.97;;;-5.45;53.28
61205;BME280;47068;55.780;37.520;2023-11-21T03:33:45;99491.06;;;-5.51;53.65
61205;BME280;47068;55.780;37.520;2023-11-21T03:36:11;99499.28;;;-5.42;53.77
61205;BME280;47068;55.780;37.520;2023-11-21T03:38:37;99503.13;;;-5.32;53.57
61205;BME280;47068;55.780;37.520;2023-11-21T03:41:03;99503.78;;;-5.27;53.77
61205;BME280;47068;55.780;37.520;2023-11-21T03:43:29;99510.25;;;-5.18;53.57
61205;BME280;47068;55.780;37.520;2023-11-21T03:45:54;99517.84;;;-5.13;53.33
61205;BME280;47068;55.780;37.520;2023-11-21T03:48:20;99503.81;;;-5.09;54.05
61205;BME280;47068;55.780;37.520;2023-11-21T03:50:45;99503.97;;;-5.12;53.46
61205;BME280;47068;55.780;37.520;2023-11-21T03:53:12;99517.56;;;-5.07;53.55
61205;BME280;47068;55.780;37.520;2023-11-21T03:55:38;99511.59;;;-5.09;53.37
61205;BME280;47068;55.780;37.520;2023-11-21T03:58:03;99498.78;;;-5.12;53.96
61205;BME280;47068;55.780;37.520;2023-11-21T04:00:28;99508.22;;;-5.11;53.38
61205;BME280;47068;55.780;37.520;2023-11-21T04:02:54;99514.63;;;-5.19;53.79
61205;BME280;47068;55.780;37.520;2023-11-21T04:05:20;99513.63;;;-5.16;54.53
61205;BME280;47068;55.780;37.520;2023-11-21T04:07:49;99506.84;;;-5.19;54.21
61205;BME280;47068;55.780;37.520;2023-11-21T04:10:15;99499.06;;;-5.19;54.33
61205;BME280;47068;55.780;37.520;2023-11-21T04:12:41;99516.16;;;-4.96;54.36
61205;BME280;47068;55.780;37.520;2023-11-21T04:15:07;99517.84;;;-4.95;53.97
61205;BME280;47068;55.780;37.520;2023-11-21T04:17:34;99495.97;;;-5.08;54.05
61205;BME280;47068;55.780;37.520;2023-11-21T04:20:00;99512.03;;;-5.00;54.15
61205;BME280;47068;55.780;37.520;2023-11-21T04:22:25;99496.25;;;-5.14;54.09
61205;BME280;47068;55.780;37.520;2023-11-21T04:24:51;99497.78;;;-5.10;54.37
61205;BME280;47068;55.780;37.520;2023-11-21T04:27:16;99511.53;;;-5.08;53.93
61205;BME280;47068;55.780;37.520;2023-11-21T04:29:43;99521.28;;;-5.13;54.08
61205;BME280;47068;55.780;37.520;2023-11-21T04:32:09;99521.19;;;-5.11;54.65
61205;BME280;47068;55.780;37.520;2023-11-21T04:34:35;99512.22;;;-5.04;54.48
61205;BME280;47068;55.780;37.520;2023-11-21T04:37:01;99520.84;;;-5.04;54.31
61205;BME280;47068;55.780;37.520;2023-11-21T04:39:26;99500.59;;;-5.14;54.37
61205;BME280;47068;55.780;37.520;2023-11-21T04:41:52;99524.38;;;-5.05;54.37
61205;BME280;47068;55.780;37.520;2023-11-21T04:44:17;99529.63;;;-5.06;55.03
61205;BME280;47068;55.780;37.520;2023-11-21T04:46:43;99538.31;;;-5.07;54.62
61205;BME280;47068;55.780;37.520;2023-11-21T04:49:08;99534.81;;;-5.06;55.49
61205;BME280;47068;55.780;37.520;2023-11-21T04:51:34;99538.44;;;-5.10;54.64
61205;BME280;47068;55.780;37.520;2023-11-21T04:54:00;99462.75;;;-5.56;55.31
61205;BME280;47068;55.780;37.520;2023-11-21T04:56:25;99529.69;;;-5.27;54.62
61205;BME280;47068;55.780;37.520;2023-11-21T04:58:51;99529.75;;;-5.28;55.15
61205;BME280;47068;55.780;37.520;2023-11-21T05:01:16;99544.97;;;-5.21;54.66
61205;BME280;47068;55.780;37.520;2023-11-21T05:03:42;99533.31;;;-5.31;54.87
61205;BME280;47068;55.780;37.520;2023-11-21T05:06:09;99547.69;;;-5.24;54.75
61205;BME280;47068;55.780;37.520;2023-11-21T05:08:35;99555.97;;;-5.16;54.85
61205;BME280;47068;55.780;37.520;2023-11-21T05:11:02;99555.00;;;-5.13;54.59
61205;BME280;47068;55.780;37.520;2023-11-21T05:13:28;99560.88;;;-5.09;55.15
61205;BME280;47068;55.780;37.520;2023-11-21T05:15:57;99555.28;;;-5.19;54.80
61205;BME280;47068;55.780;37.520;2023-11-21T05:18:22;99560.59;;;-5.41;55.27
61205;BME280;47068;55.780;37.520;2023-11-21T05:20:48;99567.19;;;-5.34;55.58
61205;BME280;47068;55.780;37.520;2023-11-21T05:23:13;99561.84;;;-5.31;55.49
61205;BME280;47068;55.780;37.520;2023-11-21T05:25:42;99557.22;;;-5.43;55.57
61205;BME280;47068;55.780;37.520;2023-11-21T05:28:07;99561.28;;;-5.37;54.75
61205;BME280;47068;55.780;37.520;2023-11-21T05:30:33;99418.09;;;-6.19;55.34
61205;BME280;47068;55.780;37.520;2023-11-21T05:32:58;99549.88;;;-5.33;55.52
61205;BME280;47068;55.780;37.520;2023-11-21T05:35:24;99543.56;;;-5.46;54.73
61205;BME280;47068;55.780;37.520;2023-11-21T05:37:49;99550.28;;;-5.42;55.40
61205;BME280;47068;55.780;37.520;2023-11-21T05:40:15;99553.06;;;-5.47;54.82
61205;BME280;47068;55.780;37.520;2023-11-21T05:42:41;99542.88;;;-5.51;55.89
61205;BME280;47068;55.780;37.520;2023-11-21T05:45:07;99547.31;;;-5.53;55.75
61205;BME280;47068;55.780;37.520;2023-11-21T05:47:44;99549.44;;;-5.43;56.02
61205;BME280;47068;55.780;37.520;2023-11-21T05:50:13;99550.72;;;-5.33;55.84
61205;BME280;47068;55.780;37.520;2023-11-21T05:52:40;99559.31;;;-5.32;55.46
61205;BME280;47068;55.780;37.520;2023-11-21T05:55:06;99558.63;;;-5.36;55.24
61205;BME280;47068;55.780;37.520;2023-11-21T05:57:36;99566.19;;;-5.31;55.29
61205;BME280;47068;55.780;37.520;2023-11-21T06:00:06;99563.13;;;-5.39;55.46
61205;BME280;47068;55.780;37.520;2023-11-21T06:02:54;99557.31;;;-5.46;55.99
61205;BME280;47068;55.780;37.520;2023-11-21T06:05:25;99571.00;;;-5.42;55.66
61205;BME280;47068;55.780;37.520;2023-11-21T06:07:51;99567.38;;;-5.38;56.37
61205;BME280;47068;55.780;37.520;2023-11-21T06:10:23;99570.94;;;-5.41;55.89
61205;BME280;47068;55.780;37.520;2023-11-21T06:12:49;99570.69;;;-5.35;56.49
61205;BME280;47068;55.780;37.520;2023-11-21T06:15:15;99574.47;;;-5.23;56.19
61205;BME280;47068;55.780;37.520;2023-11-21T06:17:42;99573.44;;;-5.19;56.11
61205;BME280;47068;55.780;37.520;2023-11-21T06:20:09;99574.84;;;-5.12;55.86
61205;BME280;47068;55.780;37.520;2023-11-21T06:22:41;99585.63;;;-5.02;56.16
61205;BME280;47068;55.780;37.520;2023-11-21T06:25:07;99584.78;;;-5.03;55.20
61205;BME280;47068;55.780;37.520;2023-11-21T06:27:44;99574.63;;;-5.07;55.86
61205;BME280;47068;55.780;37.520;2023-11-21T06:30:10;99582.06;;;-5.00;55.72
61205;BME280;47068;55.780;37.520;2023-11-21T06:32:37;99576.72;;;-4.97;55.40
61205;BME280;47068;55.780;37.520;2023-11-21T06:35:03;99584.94;;;-5.06;55.62
61205;BME280;47068;55.780;37.520;2023-11-21T06:37:30;99484.03;;;-5.68;55.45
61205;BME280;47068;55.780;37.520;2023-11-21T06:39:58;99581.56;;;-5.08;55.66
61205;BME280;47068;55.780;37.520;2023-11-21T06:42:24;99584.09;;;-5.06;55.83
61205;BME280;47068;55.780;37.520;2023-11-21T06:44:50;99582.91;;;-4.99;56.10
61205;BME280;47068;55.780;37.520;2023-11-21T06:47:36;99536.81;;;-5.32;55.62
61205;BME280;47068;55.780;37.520;2023-11-21T06:50:01;99587.94;;;-4.96;55.74
61205;BME280;47068;55.780;37.520;2023-11-21T06:52:27;99602.13;;;-4.85;55.21
61205;BME280;47068;55.780;37.520;2023-11-21T06:54:52;99590.06;;;-4.86;54.79
61205;BME280;47068;55.780;37.520;2023-11-21T06:57:18;99595.19;;;-4.84;54.30
61205;BME280;47068;55.780;37.520;2023-11-21T06:59:44;99590.59;;;-4.98;55.37
61205;BME280;47068;55.780;37.520;2023-11-21T07:02:09;99569.66;;;-5.12;55.38
61205;BME280;47068;55.780;37.520;2023-11-21T07:04:38;99590.41;;;-4.93;55.25
61205;BME280;47068;55.780;37.520;2023-11-21T07:07:04;99584.94;;;-4.87;54.86
61205;BME280;47068;55.780;37.520;2023-11-21T07:09:30;99578.69;;;-4.83;54.86
61205;BME280;47068;55.780;37.520;2023-11-21T07:11:56;99563.41;;;-4.89;54.23
61205;BME280;47068;55.780;37.520;2023-11-21T07:14:21;99576.88;;;-4.81;53.89
61205;BME280;47068;55.780;37.520;2023-11-21T07:16:47;99587.03;;;-4.58;52.85
61205;BME280;47068;55.780;37.520;2023-11-21T07:19:13;99598.63;;;-4.65;52.48
61205;BME280;47068;55.780;37.520;2023-11-21T07:21:39;99597.84;;;-4.67;52.11
61205;BME280;47068;55.780;37.520;2023-11-21T07:24:06;99576.75;;;-4.78;52.81
61205;BME280;47068;55.780;37.520;2023-11-21T07:26:33;99605.22;;;-4.58;52.90
61205;BME280;47068;55.780;37.520;2023-11-21T07:28:59;99604.22;;;-4.55;51.81
61205;BME280;47068;55.780;37.520;2023-11-21T07:31:25;99593.56;;;-4.68;52.57
61205;BME280;47068;55.780;37.520;2023-11-21T07:33:50;99591.13;;;-4.71;51.98
61205;BME280;47068;55.780;37.520;2023-11-21T07:36:16;99597.22;;;-4.72;53.37
61205;BME280;47068;55.780;37.520;2023-11-21T07:38:44;99564.97;;;-4.85;52.23
61205;BME280;47068;55.780;37.520;2023-11-21T07:41:10;99599.81;;;-4.72;52.79
61205;BME280;47068;55.780;37.520;2023-11-21T07:43:36;99567.41;;;-4.82;52.99
61205;BME280;47068;55.780;37.520;2023-11-21T07:46:02;99593.06;;;-4.76;52.64
61205;BME280;47068;55.780;37.520;2023-11-21T07:48:32;99600.00;;;-4.77;53.22
61205;BME280;47068;55.780;37.520;2023-11-21T07:50:58;99606.88;;;-4.76;53.49
61205;BME280;47068;55.780;37.520;2023-11-21T07:53:27;99597.63;;;-4.62;53.16
61205;BME280;47068;55.780;37.520;2023-11-21T07:55:54;99576.75;;;-4.78;52.59
61205;BME280;47068;55.780;37.520;2023-11-21T07:58:20;99597.34;;;-4.75;52.80
61205;BME280;47068;55.780;37.520;2023-11-21T08:00:46;99588.38;;;-4.87;53.21
61205;BME280;47068;55.780;37.520;2023-11-21T08:03:13;99571.69;;;-4.81;52.99
61205;BME280;47068;55.780;37.520;2023-11-21T08:05:39;99594.66;;;-4.55;53.31
61205;BME280;47068;55.780;37.520;2023-11-21T08:08:04;99562.97;;;-4.61;52.58
61205;BME280;47068;55.780;37.520;2023-11-21T08:10:30;99597.72;;;-4.28;52.40
61205;BME280;47068;55.780;37.520;2023-11-21T08:12:55;99590.31;;;-4.18;52.62
61205;BME280;47068;55.780;37.520;2023-11-21T08:15:21;99594.31;;;-4.11;52.59
61205;BME280;47068;55.780;37.520;2023-11-21T08:17:47;99595.38;;;-4.15;52.34
61205;BME280;47068;55.780;37.520;2023-11-21T08:20:13;99599.56;;;-4.30;52.00
61205;BME280;47068;55.780;37.520;2023-11-21T08:22:44;99589.00;;;-4.27;52.86
61205;BME280;47068;55.780;37.520;2023-11-21T08:25:10;99510.94;;;-4.77;52.66
61205;BME280;47068;55.780;37.520;2023-11-21T08:27:36;99582.84;;;-4.24;53.37
61205;BME280;47068;55.780;37.520;2023-11-21T08:30:03;99586.03;;;-4.19;52.12
61205;BME280;47068;55.780;37.520;2023-11-21T08:32:28;99594.84;;;-4.22;52.74
61205;BME280;47068;55.780;37.520;2023-11-21T08:34:55;99582.66;;;-4.21;52.89
61205;BME280;47068;55.780;37.520;2023-11-21T08:37:21;99578.84;;;-4.14;52.63
61205;BME280;47068;55.780;37.520;2023-11-21T08:39:47;99579.16;;;-4.20;52.07
61205;BME280;47068;55.780;37.520;2023-11-21T08:42:13;99562.72;;;-4.38;52.51
61205;BME280;47068;55.780;37.520;2023-11-21T08:44:40;99581.38;;;-4.30;53.20
61205;BME280;47068;55.780;37.520;2023-11-21T08:47:06;99582.34;;;-4.32;53.31
61205;BME280;47068;55.780;37.520;2023-11-21T08:49:32;99572.75;;;-4.30;53.15
61205;BME280;47068;55.780;37.520;2023-11-21T08:51:58;99576.50;;;-4.19;53.46
61205;BME280;47068;55.780;37.520;2023-11-21T08:54:26;99557.41;;;-4.18;52.25
61205;BME280;47068;55.780;37.520;2023-11-21T08:56:53;99580.09;;;-4.04;51.96
61205;BME280;47068;55.780;37.520;2023-11-21T08:59:20;99579.03;;;-4.00;51.93
61205;BME280;47068;55.780;37.520;2023-11-21T09:01:45;99586.63;;;-3.95;52.18
61205;BME280;47068;55.780;37.520;2023-11-21T09:04:11;99562.66;;;-4.19;51.60
61205;BME280;47068;55.780;37.520;2023-11-21T09:06:38;99572.88;;;-4.33;52.57
61205;BME280;47068;55.780;37.520;2023-11-21T09:09:03;99593.22;;;-4.24;53.20
61205;BME280;47068;55.780;37.520;2023-11-21T09:11:34;99587.19;;;-4.25;53.88
61205;BME280;47068;55.780;37.520;2023-11-21T09:14:01;99597.97;;;-4.15;53.68
61205;BME280;47068;55.780;37.520;2023-11-21T09:16:26;99580.31;;;-4.26;54.58
61205;BME280;47068;55.780;37.520;2023-11-21T09:18:51;99581.28;;;-4.28;53.14
61205;BME280;47068;55.780;37.520;2023-11-21T09:21:17;99598.34;;;-4.23;53.87
61205;BME280;47068;55.780;37.520;2023-11-21T09:23:46;99599.81;;;-4.17;53.85
61205;BME280;47068;55.780;37.520;2023-11-21T09:26:12;99612.03;;;-4.19;53.53
61205;BME280;47068;55.780;37.520;2023-11-21T09:28:37;99601.41;;;-4.15;53.48
61205;BME280;47068;55.780;37.520;2023-11-21T09:31:04;99589.72;;;-4.23;52.84
61205;BME280;47068;55.780;37.520;2023-11-21T09:33:30;99612.44;;;-4.10;53.39
61205;BME280;47068;55.780;37.520;2023-11-21T09:35:56;99590.06;;;-4.31;53.69
61205;BME280;47068;55.780;37.520;2023-11-21T09:38:22;99605.44;;;-4.26;54.96
61205;BME280;47068;55.780;37.520;2023-11-21T09:40:48;99579.88;;;-4.36;55.44
61205;BME280;47068;55.780;37.520;2023-11-21T09:43:18;99600.19;;;-4.08;55.19
61205;BME280;47068;55.780;37.520;2023-11-21T09:45:46;99590.34;;;-4.01;54.55
61205;BME280;47068;55.780;37.520;2023-11-21T09:48:14;99610.69;;;-3.92;52.99
61205;BME280;47068;55.780;37.520;2023-11-21T09:50:42;99605.66;;;-3.95;53.77
61205;BME280;47068;55.780;37.520;2023-11-21T09:53:21;99603.34;;;-4.01;53.56
61205;BME280;47068;55.780;37.520;2023-11-21T09:55:48;99493.25;;;-4.69;54.09
61205;BME280;47068;55.780;37.520;2023-11-21T09:58:17;99611.16;;;-4.01;54.68
61205;BME280;47068;55.780;37.520;2023-11-21T10:00:45;99615.03;;;-3.92;53.86
61205;BME280;47068;55.780;37.520;2023-11-21T10:03:12;99613.22;;;-3.90;53.84
61205;BME280;47068;55.780;37.520;2023-11-21T10:05:38;99593.34;;;-4.09;53.45
61205;BME280;47068;55.780;37.520;2023-11-21T10:08:08;99621.53;;;-4.01;53.79
61205;BME280;47068;55.780;37.520;2023-11-21T10:10:38;99611.59;;;-4.10;54.23
61205;BME280;47068;55.780;37.520;2023-11-21T10:13:11;99627.41;;;-3.98;54.10
61205;BME280;47068;55.780;37.520;2023-11-21T10:15:37;99616.59;;;-3.88;52.93
61205;BME280;47068;55.780;37.520;2023-11-21T10:18:04;99619.84;;;-3.85;52.13
61205;BME280;47068;55.780;37.520;2023-11-21T10:20:32;99625.75;;;-3.81;52.93
61205;BME280;47068;55.780;37.520;2023-11-21T10:22:59;99623.28;;;-3.84;52.64
61205;BME280;47068;55.780;37.520;2023-11-21T10:25:27;99624.59;;;-3.93;53.13
61205;BME280;47068;55.780;37.520;2023-11-21T10:27:58;99615.50;;;-4.02;54.31
61205;BME280;47068;55.780;37.520;2023-11-21T10:30:35;99609.59;;;-4.05;54.82
61205;BME280;47068;55.780;37.520;2023-11-21T10:33:03;99624.75;;;-3.96;55.45
61205;BME280;47068;55.780;37.520;2023-11-21T10:38:06;99629.84;;;-4.12;55.14
61205;BME280;47068;55.780;37.520;2023-11-21T10:40:37;99619.31;;;-4.09;55.24
61205;BME280;47068;55.780;37.520;2023-11-21T10:43:11;99597.28;;;-4.19;56.17
61205;BME280;47068;55.780;37.520;2023-11-21T10:45:38;99601.63;;;-4.19;56.47
61205;BME280;47068;55.780;37.520;2023-11-21T10:48:07;99623.50;;;-4.06;56.52
61205;BME280;47068;55.780;37.520;2023-11-21T10:50:34;99627.66;;;-4.02;55.74
61205;BME280;47068;55.780;37.520;2023-11-21T10:53:04;99627.59;;;-4.19;55.25
61205;BME280;47068;55.780;37.520;2023-11-21T10:55:31;99623.47;;;-4.23;56.92
61205;BME280;47068;55.780;37.520;2023-11-21T10:57:59;99628.38;;;-4.17;56.69
61205;BME280;47068;55.780;37.520;2023-11-21T11:00:26;99628.31;;;-4.16;55.51
61205;BME280;47068;55.780;37.520;2023-11-21T11:02:53;99641.38;;;-4.17;55.83
61205;BME280;47068;55.780;37.520;2023-11-21T11:05:23;99630.13;;;-4.18;55.25
61205;BME280;47068;55.780;37.520;2023-11-21T11:08:18;99622.28;;;-4.16;55.89
61205;BME280;47068;55.780;37.520;2023-11-21T11:10:45;99628.00;;;-4.10;55.41
61205;BME280;47068;55.780;37.520;2023-11-21T11:13:13;99621.75;;;-4.06;55.29
61205;BME280;47068;55.780;37.520;2023-11-21T11:15:40;99604.09;;;-4.16;55.18
61205;BME280;47068;55.780;37.520;2023-11-21T11:18:06;99626.09;;;-4.06;55.39
61205;BME280;47068;55.780;37.520;2023-11-21T11:20:37;99618.91;;;-4.18;55.03
61205;BME280;47068;55.780;37.520;2023-11-21T11:34:10;99648.56;;;-4.05;53.23
61205;BME280;47068;55.780;37.520;2023-11-21T11:37:03;99652.25;;;-4.09;53.76
61205;BME280;47068;55.780;37.520;2023-11-21T11:39:37;99624.69;;;-4.30;53.40
61205;BME280;47068;55.780;37.520;2023-11-21T11:42:07;99644.09;;;-4.20;53.98
61205;BME280;47068;55.780;37.520;2023-11-21T11:47:15;99626.50;;;-4.32;53.80
61205;BME280;47068;55.780;37.520;2023-11-21T11:50:00;99650.19;;;-4.21;53.49
61205;BME280;47068;55.780;37.520;2023-11-21T11:52:43;99646.16;;;-4.27;53.89
61205;BME280;47068;55.780;37.520;2023-11-21T11:55:11;99646.22;;;-4.28;54.04
61205;BME280;47068;55.780;37.520;2023-11-21T11:57:38;99646.72;;;-4.39;53.96
61205;BME280;47068;55.780;37.520;2023-11-21T12:00:19;99642.88;;;-4.30;54.32
61205;BME280;47068;55.780;37.520;2023-11-21T12:02:47;99654.94;;;-4.29;54.04
61205;BME280;47068;55.780;37.520;2023-11-21T12:05:15;99654.44;;;-4.38;54.42
61205;BME280;47068;55.780;37.520;2023-11-21T12:07:52;99656.13;;;-4.37;54.08
61205;BME280;47068;55.780;37.520;2023-11-21T12:10:24;99670.22;;;-4.42;54.01
61205;BME280;47068;55.780;37.520;2023-11-21T12:12:52;99673.81;;;-4.45;53.94
61205;BME280;47068;55.780;37.520;2023-11-21T12:15:18;99649.97;;;-4.53;54.67
61205;BME280;47068;55.780;37.520;2023-11-21T12:17:45;99673.91;;;-4.46;54.72
61205;BME280;47068;55.780;37.520;2023-11-21T12:20:12;99676.56;;;-4.48;54.06
61205;BME280;47068;55.780;37.520;2023-11-21T12:22:55;99684.16;;;-4.43;53.67
61205;BME280;47068;55.780;37.520;2023-11-21T12:25:22;99671.28;;;-4.46;53.87
61205;BME280;47068;55.780;37.520;2023-11-21T12:27:50;99684.28;;;-4.46;54.52
61205;BME280;47068;55.780;37.520;2023-11-21T12:30:18;99680.00;;;-4.47;54.58
61205;BME280;47068;55.780;37.520;2023-11-21T12:32:44;99680.78;;;-4.45;54.92
61205;BME280;47068;55.780;37.520;2023-11-21T12:35:13;99678.88;;;-4.42;54.72
61205;BME280;47068;55.780;37.520;2023-11-21T12:37:40;99689.69;;;-4.32;54.71
61205;BME280;47068;55.780;37.520;2023-11-21T12:40:08;99681.31;;;-4.20;54.71
61205;BME280;47068;55.780;37.520;2023-11-21T12:42:38;99692.97;;;-4.28;53.92
61205;BME280;47068;55.780;37.520;2023-11-21T12:45:24;99694.81;;;-4.30;54.13
61205;BME280;47068;55.780;37.520;2023-11-21T12:48:04;99686.03;;;-4.47;55.08
61205;BME280;47068;55.780;37.520;2023-11-21T12:50:33;99692.41;;;-4.35;54.67
61205;BME280;47068;55.780;37.520;2023-11-21T12:53:01;99685.34;;;-4.31;54.58
61205;BME280;47068;55.780;37.520;2023-11-21T12:55:30;99686.38;;;-4.36;54.04
61205;BME280;47068;55.780;37.520;2023-11-21T12:57:56;99683.94;;;-4.39;54.73
61205;BME280;47068;55.780;37.520;2023-11-21T13:00:32;99684.91;;;-4.41;54.72
61205;BME280;47068;55.780;37.520;2023-11-21T13:02:59;99669.13;;;-4.55;54.77
61205;BME280;47068;55.780;37.520;2023-11-21T13:05:32;99685.47;;;-4.53;55.38
61205;BME280;47068;55.780;37.520;2023-11-21T13:08:00;99684.78;;;-4.57;54.94